Time;durP1;ratioP1;P1;durP2;ratioP2;P2;SDS_P1;SDS_P2;PMS_P1;PMS_P2;Temp;Humidity;BMP_temperature;BMP_pressure;BME280_temperature;BME280_humidity;BME280_pressure;Samples;Min_cycle;Max_cycle;Signal;HPM_P1;HPM_P2
2021/10/01 00:01:22;;;;;;;7.03;2.15;;;10.30;99.90;;;;;;5066489;28;20040;-56
2021/10/01 00:03:47;;;;;;;7.40;2.08;;;10.30;99.90;;;;;;5060426;28;20028;-56
2021/10/01 00:06:13;;;;;;;11.23;2.33;;;10.30;99.90;;;;;;5062921;28;20035;-57
2021/10/01 00:08:38;;;;;;;7.85;2.50;;;10.30;99.90;;;;;;5063353;28;20027;-57
2021/10/01 00:11:04;;;;;;;14.57;2.20;;;10.30;99.90;;;;;;5066248;28;20036;-55
2021/10/01 00:13:30;;;;;;;6.63;1.98;;;10.20;99.90;;;;;;5056750;28;20029;-58
2021/10/01 00:15:56;;;;;;;17.02;2.58;;;10.30;99.90;;;;;;5070639;28;20044;-58
2021/10/01 00:18:21;;;;;;;6.10;1.55;;;10.30;99.90;;;;;;5059609;28;20032;-59
2021/10/01 00:20:47;;;;;;;7.60;2.15;;;10.30;99.90;;;;;;5060990;28;20043;-54
2021/10/01 00:23:13;;;;;;;10.05;1.98;;;10.30;99.90;;;;;;5064932;28;20484;-55
2021/10/01 00:25:39;;;;;;;9.00;1.90;;;10.40;99.90;;;;;;5065026;28;20036;-58
2021/10/01 00:28:04;;;;;;;11.63;1.90;;;10.40;99.90;;;;;;5064050;28;20558;-57
2021/10/01 00:30:30;;;;;;;14.75;2.05;;;10.40;99.90;;;;;;5039052;28;20029;-56
2021/10/01 00:32:58;;;;;;;4.40;2.28;;;10.40;99.90;;;;;;5063327;28;20199;-55
2021/10/01 00:35:23;;;;;;;10.02;1.95;;;10.50;99.90;;;;;;5063125;28;20028;-58
2021/10/01 00:37:49;;;;;;;6.07;1.75;;;10.50;99.90;;;;;;5058135;28;20039;-56
2021/10/01 00:40:14;;;;;;;6.65;1.77;;;10.40;99.90;;;;;;5063992;28;20020;-58
2021/10/01 00:42:40;;;;;;;3.83;1.55;;;10.40;99.90;;;;;;5062659;28;20029;-57
2021/10/01 00:45:06;;;;;;;6.90;1.60;;;10.30;99.90;;;;;;5060842;28;20385;-57
2021/10/01 00:47:32;;;;;;;7.55;1.42;;;10.30;99.90;;;;;;5063290;28;20373;-55
2021/10/01 00:49:57;;;;;;;7.50;1.38;;;10.40;99.90;;;;;;5055636;28;20024;-57
2021/10/01 00:52:23;;;;;;;6.20;1.70;;;10.30;99.90;;;;;;5067041;28;20407;-54
2021/10/01 00:54:49;;;;;;;5.82;1.80;;;10.30;99.90;;;;;;5063532;28;20104;-57
2021/10/01 00:57:15;;;;;;;5.28;1.38;;;10.30;99.90;;;;;;5058157;28;20036;-54
2021/10/01 00:59:41;;;;;;;6.80;1.40;;;10.20;99.90;;;;;;5068299;28;20037;-57
2021/10/01 01:02:07;;;;;;;4.78;1.65;;;10.20;99.90;;;;;;5059523;28;20096;-58
2021/10/01 01:04:33;;;;;;;6.53;1.50;;;10.20;99.90;;;;;;5059647;28;20035;-58
2021/10/01 01:07:12;;;;;;;6.88;1.52;;;10.20;99.90;;;;;;5058074;28;20100;-58
2021/10/01 01:10:06;;;;;;;4.95;1.88;;;10.10;99.90;;;;;;5064977;28;20040;-58
2021/10/01 01:12:46;;;;;;;5.97;2.00;;;10.10;99.90;;;;;;5063261;28;20056;-57
2021/10/01 01:15:35;;;;;;;5.38;1.63;;;10.00;99.90;;;;;;5057236;28;20025;-58
2021/10/01 01:18:05;;;;;;;11.70;1.65;;;10.00;99.90;;;;;;5058987;28;20035;-57
2021/10/01 01:20:47;;;;;;;7.57;1.60;;;10.00;99.90;;;;;;5059895;28;20310;-57
2021/10/01 01:23:36;;;;;;;6.43;1.75;;;10.00;99.90;;;;;;5061675;28;20099;-58
2021/10/01 01:26:10;;;;;;;6.18;1.77;;;10.00;99.90;;;;;;5057897;28;20053;-58
2021/10/01 01:29:04;;;;;;;6.85;1.50;;;10.00;99.90;;;;;;5061209;28;20024;-58
2021/10/01 01:31:54;;;;;;;5.22;1.65;;;10.00;99.90;;;;;;5061356;28;20033;-57
2021/10/01 01:34:33;;;;;;;9.70;1.60;;;9.90;99.90;;;;;;5063810;28;20029;-59
2021/10/01 01:37:05;;;;;;;9.70;2.45;;;9.90;99.90;;;;;;5069046;28;20147;-57
2021/10/01 01:39:33;;;;;;;10.43;1.95;;;9.90;99.90;;;;;;5059481;28;20024;-58
2021/10/01 01:41:59;;;;;;;5.90;1.38;;;9.90;99.90;;;;;;5056811;28;20185;-57
2021/10/01 01:44:27;;;;;;;5.82;1.50;;;9.90;99.90;;;;;;5062296;28;20542;-59
2021/10/01 01:46:55;;;;;;;7.55;2.10;;;9.90;99.90;;;;;;5060826;28;20033;-57
2021/10/01 01:49:22;;;;;;;4.80;1.63;;;9.90;99.90;;;;;;5059759;28;20027;-58
2021/10/01 01:51:48;;;;;;;8.13;1.42;;;9.80;99.90;;;;;;5058973;28;20510;-59
2021/10/01 01:54:16;;;;;;;6.70;1.35;;;9.80;99.90;;;;;;5061088;28;20031;-58
2021/10/01 01:56:42;;;;;;;6.05;1.60;;;9.90;99.90;;;;;;5065656;28;20743;-57
2021/10/01 01:59:08;;;;;;;11.10;2.00;;;9.90;99.90;;;;;;5061331;28;20117;-54
2021/10/01 02:01:35;;;;;;;3.40;1.35;;;9.90;99.90;;;;;;5058026;28;20090;-54
2021/10/01 02:04:01;;;;;;;8.05;1.67;;;9.80;99.90;;;;;;5062357;28;20028;-59
2021/10/01 02:06:28;;;;;;;1.40;1.20;;;9.90;99.90;;;;;;5063306;28;20036;-59
2021/10/01 02:08:55;;;;;;;3.90;1.67;;;9.90;99.90;;;;;;5059329;28;20086;-57
2021/10/01 02:11:21;;;;;;;7.53;1.48;;;9.90;99.90;;;;;;5051792;28;20028;-55
2021/10/01 02:13:47;;;;;;;11.43;1.90;;;9.90;99.90;;;;;;5060429;28;20451;-54
2021/10/01 02:16:14;;;;;;;7.35;1.52;;;10.00;99.90;;;;;;5058372;28;20047;-57
2021/10/01 02:18:42;;;;;;;8.52;1.60;;;10.00;99.90;;;;;;5062962;28;20103;-57
2021/10/01 02:21:08;;;;;;;2.85;1.02;;;10.00;99.90;;;;;;5063273;28;20056;-58
2021/10/01 02:23:33;;;;;;;9.20;1.70;;;10.00;99.90;;;;;;5057265;28;20519;-57
2021/10/01 02:28:54;;;;;;;8.27;1.25;;;10.00;99.90;;;;;;5064012;28;20109;-57
2021/10/01 02:31:26;;;;;;;8.38;1.85;;;10.00;99.90;;;;;;5065100;28;20107;-57
2021/10/01 02:33:52;;;;;;;7.20;1.80;;;9.90;99.90;;;;;;5062798;28;20061;-58
2021/10/01 02:36:18;;;;;;;5.88;1.60;;;9.90;99.90;;;;;;5066543;28;20033;-58
2021/10/01 02:38:44;;;;;;;7.53;1.35;;;9.90;99.90;;;;;;5069865;28;20028;-57
2021/10/01 02:41:10;;;;;;;10.35;1.85;;;9.90;99.90;;;;;;5066597;28;20044;-56
2021/10/01 02:43:36;;;;;;;6.45;1.77;;;9.80;99.90;;;;;;5065493;28;20025;-54
2021/10/01 02:46:01;;;;;;;10.55;1.55;;;9.80;99.90;;;;;;5069700;28;20094;-57
2021/10/01 02:48:27;;;;;;;2.65;1.20;;;9.80;99.90;;;;;;5068292;28;20024;-58
2021/10/01 02:51:00;;;;;;;7.80;1.88;;;9.80;99.90;;;;;;5061656;28;20553;-54
2021/10/01 02:53:40;;;;;;;5.03;1.60;;;9.80;99.90;;;;;;5062805;28;20021;-57
2021/10/01 02:56:14;;;;;;;7.35;1.83;;;9.70;99.90;;;;;;5062364;28;20454;-57
2021/10/01 02:58:45;;;;;;;7.93;1.67;;;9.80;99.90;;;;;;5061377;28;20580;-57
2021/10/01 03:01:14;;;;;;;5.00;1.60;;;9.70;99.90;;;;;;5063870;28;20076;-58
2021/10/01 03:03:47;;;;;;;7.30;2.05;;;9.80;99.90;;;;;;5062482;28;20241;-58
2021/10/01 03:06:17;;;;;;;4.97;1.23;;;9.80;99.90;;;;;;5061329;28;20020;-54
2021/10/01 03:08:43;;;;;;;4.22;1.60;;;9.80;99.90;;;;;;5066524;28;20039;-57
2021/10/01 03:11:10;;;;;;;4.90;1.50;;;9.80;99.90;;;;;;5060215;28;20032;-59
2021/10/01 03:13:40;;;;;;;15.82;1.90;;;9.80;99.90;;;;;;5066308;28;20504;-57
2021/10/01 03:16:07;;;;;;;7.95;1.40;;;9.90;99.90;;;;;;5066991;28;20090;-58
2021/10/01 03:18:33;;;;;;;6.82;1.45;;;9.90;99.90;;;;;;5065372;28;20116;-54
2021/10/01 03:21:05;;;;;;;12.73;1.73;;;9.90;99.90;;;;;;5056626;28;20033;-57
2021/10/01 03:23:31;;;;;;;9.10;1.95;;;10.00;99.90;;;;;;5066781;28;20028;-57
2021/10/01 03:25:57;;;;;;;5.80;2.00;;;10.00;99.90;;;;;;5062613;28;20393;-52
2021/10/01 03:28:23;;;;;;;5.60;1.80;;;10.10;99.90;;;;;;5067557;28;20025;-57
2021/10/01 03:30:50;;;;;;;4.50;1.70;;;10.20;99.90;;;;;;5059689;28;20477;-56
2021/10/01 03:33:16;;;;;;;6.45;2.03;;;10.20;99.90;;;;;;5059318;28;20511;-57
2021/10/01 03:35:43;;;;;;;6.57;1.83;;;10.20;99.90;;;;;;5066011;28;20100;-56
2021/10/01 03:38:15;;;;;;;7.93;2.08;;;10.30;99.90;;;;;;5061084;28;20103;-55
2021/10/01 03:40:43;;;;;;;10.93;1.55;;;10.30;99.90;;;;;;5064155;28;20029;-56
2021/10/01 03:43:10;;;;;;;6.88;1.98;;;10.30;99.90;;;;;;5058515;28;20016;-57
2021/10/01 03:45:36;;;;;;;8.90;1.60;;;10.40;99.90;;;;;;5059188;28;20037;-57
2021/10/01 03:48:03;;;;;;;5.95;1.67;;;10.40;99.90;;;;;;5062577;28;20082;-54
2021/10/01 03:50:29;;;;;;;11.30;2.13;;;10.30;99.90;;;;;;5062379;28;20070;-56
2021/10/01 03:52:55;;;;;;;6.57;2.40;;;10.40;99.90;;;;;;5064150;28;20032;-52
2021/10/01 03:55:21;;;;;;;4.18;1.75;;;10.40;99.90;;;;;;5061456;28;20037;-56
2021/10/01 03:57:48;;;;;;;7.57;2.35;;;10.40;99.90;;;;;;5059001;28;20029;-54
2021/10/01 04:00:15;;;;;;;8.25;1.77;;;10.40;99.90;;;;;;5058557;28;20464;-54
2021/10/01 04:02:40;;;;;;;8.65;1.55;;;10.40;99.90;;;;;;5057485;28;20075;-56
2021/10/01 04:05:06;;;;;;;5.25;1.30;;;10.40;99.90;;;;;;5063181;28;20052;-57
2021/10/01 04:07:32;;;;;;;5.40;1.20;;;10.40;99.90;;;;;;5052523;23;20044;-55
2021/10/01 04:09:57;;;;;;;5.28;1.60;;;10.40;99.90;;;;;;5045256;28;20033;-53
2021/10/01 04:12:27;;;;;;;7.68;1.50;;;10.50;99.90;;;;;;5040708;28;20033;-55
2021/10/01 04:14:52;;;;;;;3.55;1.63;;;10.40;99.90;;;;;;5043922;28;20063;-54
2021/10/01 04:17:18;;;;;;;4.95;2.03;;;10.40;99.90;;;;;;5043461;28;20350;-55
2021/10/01 04:19:44;;;;;;;5.97;1.92;;;10.40;99.90;;;;;;5044677;28;20025;-55
2021/10/01 04:22:09;;;;;;;6.28;1.70;;;10.40;99.90;;;;;;5049251;28;20101;-58
2021/10/01 04:24:35;;;;;;;6.15;1.50;;;10.40;99.90;;;;;;5039263;28;20064;-57
2021/10/01 04:27:01;;;;;;;6.90;1.55;;;10.40;99.90;;;;;;5041315;28;20021;-55
2021/10/01 04:29:26;;;;;;;6.15;1.52;;;10.30;99.90;;;;;;5043109;28;20024;-58
2021/10/01 04:31:52;;;;;;;7.88;1.80;;;10.30;99.90;;;;;;5041380;28;20029;-58
2021/10/01 04:34:18;;;;;;;7.68;1.55;;;10.20;99.90;;;;;;5037329;28;20187;-57
2021/10/01 04:36:44;;;;;;;5.93;1.52;;;10.20;99.90;;;;;;5043502;28;20459;-57
2021/10/01 04:39:10;;;;;;;10.15;1.63;;;10.20;99.90;;;;;;5042623;28;20034;-55
2021/10/01 04:41:36;;;;;;;17.48;2.40;;;10.10;99.90;;;;;;5037214;28;20171;-59
2021/10/01 04:44:01;;;;;;;4.30;1.52;;;10.10;99.90;;;;;;5044357;28;20167;-58
2021/10/01 04:46:27;;;;;;;5.28;1.67;;;10.00;99.90;;;;;;5044896;28;20024;-55
2021/10/01 04:48:55;;;;;;;7.05;2.15;;;9.90;99.90;;;;;;5044818;28;20358;-55
2021/10/01 04:51:20;;;;;;;5.65;1.70;;;9.90;99.90;;;;;;5042607;28;20033;-54
2021/10/01 04:53:46;;;;;;;5.88;1.50;;;9.80;99.90;;;;;;5046787;28;20381;-56
2021/10/01 04:56:11;;;;;;;6.32;1.77;;;9.80;99.90;;;;;;5047672;28;20112;-56
2021/10/01 04:58:37;;;;;;;5.15;1.83;;;9.80;99.90;;;;;;5042685;28;20037;-57
2021/10/01 05:01:03;;;;;;;9.93;2.08;;;9.80;99.90;;;;;;5045481;28;20040;-56
2021/10/01 05:03:29;;;;;;;8.13;1.67;;;9.90;99.90;;;;;;5052961;28;20503;-58
2021/10/01 05:05:55;;;;;;;6.07;1.48;;;9.90;99.90;;;;;;5046561;28;20554;-58
2021/10/01 05:08:21;;;;;;;8.40;2.00;;;9.90;99.90;;;;;;5041103;28;20036;-55
2021/10/01 05:10:46;;;;;;;5.78;2.10;;;10.00;99.90;;;;;;5051714;28;20075;-57
2021/10/01 05:13:12;;;;;;;6.85;2.30;;;10.00;99.90;;;;;;5050768;28;20028;-55
2021/10/01 05:15:43;;;;;;;7.50;1.77;;;10.00;99.90;;;;;;5045419;28;20045;-55
2021/10/01 05:18:09;;;;;;;8.15;2.00;;;10.00;99.90;;;;;;5044217;28;20439;-58
2021/10/01 05:20:35;;;;;;;7.78;1.40;;;10.00;99.90;;;;;;5044547;28;20021;-58
2021/10/01 05:23:01;;;;;;;5.35;1.60;;;10.00;99.90;;;;;;5042454;28;20025;-59
2021/10/01 05:25:26;;;;;;;7.88;1.70;;;10.00;99.90;;;;;;5039791;28;20025;-58
2021/10/01 05:27:53;;;;;;;4.50;1.50;;;10.00;99.90;;;;;;5042024;28;20025;-58
2021/10/01 05:30:19;;;;;;;5.13;1.35;;;10.00;99.90;;;;;;5040590;28;20029;-59
2021/10/01 05:32:45;;;;;;;8.85;1.80;;;10.00;99.90;;;;;;5042360;28;20087;-60
2021/10/01 05:35:10;;;;;;;5.70;1.80;;;10.00;99.90;;;;;;5041024;28;20028;-58
2021/10/01 05:37:36;;;;;;;8.30;1.50;;;10.00;99.90;;;;;;5047109;28;20037;-58
2021/10/01 05:40:04;;;;;;;9.38;1.60;;;10.00;99.90;;;;;;5044834;28;20426;-55
2021/10/01 05:42:29;;;;;;;5.97;1.70;;;10.00;99.90;;;;;;5040475;28;20048;-63
2021/10/01 05:44:55;;;;;;;8.30;1.65;;;10.10;99.90;;;;;;5042660;28;20106;-62
2021/10/01 05:47:20;;;;;;;7.20;1.80;;;10.10;99.90;;;;;;5043629;28;20031;-56
2021/10/01 05:49:47;;;;;;;10.88;1.67;;;10.10;99.90;;;;;;5041607;28;20056;-59
2021/10/01 05:54:57;;;;;;;5.20;1.50;;;10.20;99.90;;;;;;5045263;28;20449;-58
2021/10/01 05:57:23;;;;;;;7.78;1.23;;;10.20;99.90;;;;;;5037459;28;20076;-57
2021/10/01 05:59:48;;;;;;;11.15;1.80;;;10.20;99.90;;;;;;5047735;28;20036;-61
2021/10/01 06:02:19;;;;;;;11.88;2.00;;;10.30;99.90;;;;;;5046080;28;20036;-55
2021/10/01 06:04:45;;;;;;;5.10;1.45;;;10.30;99.90;;;;;;5046358;28;20021;-58
2021/10/01 06:07:12;;;;;;;6.72;1.77;;;10.40;99.90;;;;;;5045512;28;20028;-61
2021/10/01 06:09:40;;;;;;;7.82;2.05;;;10.40;99.90;;;;;;5045662;28;20021;-58
2021/10/01 06:12:06;;;;;;;6.63;1.83;;;10.40;99.90;;;;;;5039331;28;20455;-58
2021/10/01 06:14:32;;;;;;;5.32;2.17;;;10.40;99.90;;;;;;5039412;28;20033;-55
2021/10/01 06:16:58;;;;;;;4.55;1.75;;;10.40;99.90;;;;;;5046308;28;20075;-56
2021/10/01 06:19:24;;;;;;;3.33;1.52;;;10.40;99.90;;;;;;5039460;28;20104;-57
2021/10/01 06:21:51;;;;;;;6.00;1.30;;;10.50;99.90;;;;;;5043460;28;20431;-58
2021/10/01 06:24:17;;;;;;;3.67;1.33;;;10.50;99.90;;;;;;5039007;28;20112;-55
2021/10/01 06:26:43;;;;;;;4.53;1.40;;;10.50;99.90;;;;;;5037282;28;20025;-58
2021/10/01 06:29:09;;;;;;;6.85;1.40;;;10.50;99.90;;;;;;5039309;28;20492;-55
2021/10/01 06:31:34;;;;;;;2.92;1.30;;;10.50;99.90;;;;;;5044238;28;20047;-58
2021/10/01 06:34:00;;;;;;;3.58;1.50;;;10.50;99.90;;;;;;5035009;28;20060;-60
2021/10/01 06:36:25;;;;;;;6.90;1.60;;;10.50;99.90;;;;;;5030002;28;20030;-57
2021/10/01 06:38:51;;;;;;;12.48;1.60;;;10.50;99.90;;;;;;5034355;28;20033;-55
2021/10/01 06:41:17;;;;;;;8.55;1.50;;;10.50;99.90;;;;;;5038635;28;20091;-57
2021/10/01 06:43:44;;;;;;;9.27;1.40;;;10.60;99.90;;;;;;5034379;28;20477;-59
2021/10/01 06:46:22;;;;;;;7.70;1.42;;;10.50;99.90;;;;;;5036593;28;20120;-55
2021/10/01 06:49:00;;;;;;;5.57;1.58;;;10.60;99.90;;;;;;5036979;28;20026;-56
2021/10/01 06:51:45;;;;;;;4.45;1.63;;;10.60;99.90;;;;;;5035264;28;20404;-55
2021/10/01 07:24:15;;;;;;;5.43;1.52;;;11.30;99.90;;;;;;5038699;28;20516;-60
2021/10/01 08:18:27;;;;;;;3.50;1.20;;;12.80;99.90;;;;;;5032796;28;20089;-58
2021/10/01 08:20:53;;;;;;;5.75;1.20;;;12.80;99.90;;;;;;5032771;28;20029;-58
2021/10/01 08:23:19;;;;;;;4.93;1.10;;;12.80;99.90;;;;;;5032477;28;20022;-60
2021/10/01 08:25:45;;;;;;;5.45;1.25;;;12.80;99.90;;;;;;5030975;28;20552;-57
2021/10/01 08:28:10;;;;;;;7.20;1.52;;;12.80;99.90;;;;;;5031556;28;20017;-56
2021/10/01 08:30:37;;;;;;;5.35;1.30;;;12.80;99.90;;;;;;5031301;28;20029;-54
2021/10/01 08:33:04;;;;;;;3.15;1.17;;;12.80;99.90;;;;;;5040347;28;20061;-56
2021/10/01 08:35:30;;;;;;;4.15;1.35;;;12.90;99.90;;;;;;5034374;28;20500;-55
2021/10/01 08:37:57;;;;;;;4.10;1.50;;;12.90;99.90;;;;;;5031849;28;20547;-57
2021/10/01 08:40:24;;;;;;;8.43;1.45;;;13.00;99.90;;;;;;5034619;28;20477;-58
2021/10/01 08:42:51;;;;;;;5.15;1.40;;;13.20;99.90;;;;;;5046116;28;20029;-55
2021/10/01 08:45:18;;;;;;;7.30;1.40;;;13.40;99.90;;;;;;5050675;28;20033;-57
2021/10/01 08:47:45;;;;;;;6.47;1.60;;;13.50;99.90;;;;;;5035118;28;20045;-62
2021/10/01 08:50:14;;;;;;;3.92;1.10;;;13.70;99.90;;;;;;5031711;28;20033;-57
2021/10/01 08:52:40;;;;;;;9.63;1.23;;;13.80;99.90;;;;;;5032117;28;20116;-57
2021/10/01 08:55:08;;;;;;;12.10;4.95;;;13.90;99.90;;;;;;5038142;28;20104;-57
2021/10/01 08:57:34;;;;;;;133.82;12.63;;;14.10;99.90;;;;;;5031357;28;20477;-56
2021/10/01 09:00:02;;;;;;;297.08;21.60;;;14.20;99.90;;;;;;5035156;28;20500;-57
2021/10/01 09:02:28;;;;;;;8.30;1.48;;;14.30;99.90;;;;;;5036036;28;20038;-55
2021/10/01 09:04:55;;;;;;;3.85;1.27;;;14.50;99.90;;;;;;5032628;28;20025;-58
2021/10/01 09:07:23;;;;;;;4.88;1.23;;;14.60;99.90;;;;;;5033711;28;20025;-58
2021/10/01 09:09:52;;;;;;;3.83;0.98;;;14.70;99.90;;;;;;5034869;28;20030;-58
2021/10/01 09:12:18;;;;;;;6.28;1.10;;;14.80;99.90;;;;;;5032978;28;20044;-58
2021/10/01 09:14:52;;;;;;;11.00;1.48;;;14.90;99.90;;;;;;5038673;28;20087;-60
2021/10/01 09:17:22;;;;;;;3.53;1.00;;;15.00;99.90;;;;;;5050814;28;20025;-58
2021/10/01 09:19:49;;;;;;;10.77;1.27;;;15.10;99.90;;;;;;5042016;28;20033;-58
2021/10/01 09:22:31;;;;;;;6.35;1.58;;;15.20;99.90;;;;;;5037113;28;20033;-58
2021/10/01 09:25:17;;;;;;;4.07;1.10;;;15.30;99.90;;;;;;5038749;28;20041;-58
2021/10/01 09:27:45;;;;;;;5.57;0.98;;;15.40;99.90;;;;;;5031420;28;20100;-57
2021/10/01 09:30:12;;;;;;;5.00;1.20;;;15.50;99.90;;;;;;5034727;28;20026;-56
2021/10/01 09:32:39;;;;;;;3.90;1.08;;;15.50;99.90;;;;;;5034028;28;20083;-58
2021/10/01 09:35:14;;;;;;;9.45;1.42;;;15.60;99.90;;;;;;5034060;28;20500;-57
2021/10/01 09:37:40;;;;;;;4.05;1.35;;;15.70;99.90;;;;;;5031175;28;20432;-55
2021/10/01 09:40:07;;;;;;;6.03;1.33;;;15.80;99.90;;;;;;5037792;28;20041;-56
2021/10/01 09:42:41;;;;;;;3.53;1.27;;;15.90;99.90;;;;;;5030806;28;20557;-56
2021/10/01 09:45:08;;;;;;;5.18;1.20;;;16.00;99.90;;;;;;5037283;28;20033;-57
2021/10/01 09:47:43;;;;;;;3.13;1.02;;;16.10;99.90;;;;;;5035777;28;20060;-62
2021/10/01 09:50:10;;;;;;;;;;;16.20;99.90;;;;;;5042715;28;20033;-55
2021/10/01 09:52:45;;;;;;;5.38;1.10;;;16.30;99.90;;;;;;5037205;28;19917;-58
2021/10/01 09:55:12;;;;;;;1.92;1.20;;;16.30;99.90;;;;;;5037083;28;20392;-57
2021/10/01 09:57:39;;;;;;;5.10;1.30;;;16.40;99.90;;;;;;5032733;28;20116;-59
2021/10/01 10:00:07;;;;;;;5.82;1.13;;;16.40;99.90;;;;;;5042518;28;20071;-55
2021/10/01 10:02:37;;;;;;;9.05;1.40;;;16.40;99.90;;;;;;5046669;28;20439;-56
2021/10/01 10:05:03;;;;;;;6.57;1.50;;;16.30;99.90;;;;;;5030972;28;20025;-54
2021/10/01 10:07:29;;;;;;;4.75;1.00;;;16.40;99.90;;;;;;5049599;23;20037;-58
2021/10/01 10:09:57;;;;;;;9.98;0.95;;;16.40;99.90;;;;;;5002171;28;20017;-59
2021/10/01 10:12:25;;;;;;;6.13;1.17;;;16.40;99.90;;;;;;5015403;28;20104;-59
2021/10/01 10:14:54;;;;;;;5.75;1.17;;;16.40;99.90;;;;;;5010918;28;20033;-60
2021/10/01 10:17:26;;;;;;;12.88;1.50;;;16.50;99.90;;;;;;5011535;28;20375;-60
2021/10/01 10:19:54;;;;;;;7.20;1.60;;;16.60;99.90;;;;;;5010405;28;20129;-61
2021/10/01 10:22:21;;;;;;;6.30;1.20;;;16.60;99.90;;;;;;5016936;28;20092;-59
2021/10/01 10:24:47;;;;;;;7.22;1.35;;;16.70;99.90;;;;;;5022807;28;20030;-60
2021/10/01 10:27:13;;;;;;;2.80;1.17;;;16.60;99.90;;;;;;5024279;28;20069;-59
2021/10/01 10:29:41;;;;;;;3.25;1.00;;;16.70;99.90;;;;;;5025206;28;20352;-59
2021/10/01 10:32:09;;;;;;;6.18;1.38;;;16.70;99.90;;;;;;5014341;28;20044;-60
2021/10/01 10:34:34;;;;;;;5.07;1.27;;;16.80;99.90;;;;;;5010321;28;20076;-60
2021/10/01 10:37:08;;;;;;;5.50;1.25;;;16.90;99.90;;;;;;5011170;28;20042;-60
2021/10/01 10:39:40;;;;;;;2.67;1.23;;;16.90;99.90;;;;;;5010133;28;20061;-59
2021/10/01 10:42:09;;;;;;;4.18;1.40;;;16.90;99.90;;;;;;5015541;28;20493;-59
2021/10/01 10:44:41;;;;;;;2.65;1.20;;;16.90;99.90;;;;;;5022688;28;20482;-60
2021/10/01 10:47:08;;;;;;;4.05;1.15;;;17.00;99.90;;;;;;5023024;28;20033;-59
2021/10/01 10:49:33;;;;;;;5.35;1.23;;;17.00;99.90;;;;;;5020496;28;20033;-59
2021/10/01 10:52:14;;;;;;;7.88;1.40;;;17.10;99.90;;;;;;5026742;28;20045;-58
2021/10/01 10:54:43;;;;;;;3.97;1.30;;;17.20;99.90;;;;;;5023219;28;20053;-59
2021/10/01 10:57:20;;;;;;;6.15;1.20;;;17.30;99.90;;;;;;5024632;28;20028;-56
2021/10/01 10:59:55;;;;;;;5.30;1.13;;;17.40;99.90;;;;;;5021237;28;20025;-60
2021/10/01 11:02:27;;;;;;;11.10;1.48;;;17.50;99.90;;;;;;5022068;28;20052;-59
2021/10/01 11:05:24;;;;;;;5.03;1.55;;;17.50;99.90;;;;;;5026582;28;20084;-59
2021/10/01 11:08:01;;;;;;;4.78;1.20;;;17.50;99.90;;;;;;5032761;28;20084;-57
2021/10/01 11:10:37;;;;;;;3.85;1.00;;;17.50;99.90;;;;;;5019309;28;20032;-56
2021/10/01 11:13:18;;;;;;;4.93;1.38;;;17.50;99.90;;;;;;5025331;28;20073;-55
2021/10/01 11:16:12;;;;;;;6.68;1.45;;;17.50;99.90;;;;;;5013716;28;20037;-57
2021/10/01 11:18:47;;;;;;;5.90;1.38;;;17.30;99.90;;;;;;5009900;28;20102;-56
2021/10/01 11:21:35;;;;;;;6.05;1.17;;;17.30;99.90;;;;;;5027023;28;20033;-57
2021/10/01 11:24:12;;;;;;;11.13;1.50;;;17.50;99.90;;;;;;5029430;28;20074;-58
2021/10/01 11:26:47;;;;;;;3.58;1.17;;;17.80;99.90;;;;;;5017954;28;20095;-58
2021/10/01 11:29:26;;;;;;;4.90;1.42;;;17.90;99.90;;;;;;5013681;28;20097;-58
2021/10/01 11:31:56;;;;;;;5.28;1.50;;;18.00;99.90;;;;;;5013851;28;20363;-59
2021/10/01 11:34:43;;;;;;;4.22;1.50;;;18.10;99.90;;;;;;5013089;28;20026;-59
2021/10/01 11:37:32;;;;;;;5.38;1.90;;;18.30;99.90;;;;;;5013267;28;20065;-59
2021/10/01 11:40:02;;;;;;;5.82;1.63;;;18.40;99.90;;;;;;5016945;28;20034;-60
2021/10/01 11:42:36;;;;;;;5.32;1.27;;;18.60;99.90;;;;;;5017838;28;20497;-58
2021/10/01 11:45:10;;;;;;;8.50;1.42;;;18.80;99.90;;;;;;5013147;28;20101;-58
2021/10/01 11:47:36;;;;;;;8.77;1.77;;;19.00;99.90;;;;;;5017281;28;20095;-60
2021/10/01 11:50:04;;;;;;;5.00;1.35;;;19.20;99.90;;;;;;5024709;28;20129;-59
2021/10/01 11:52:29;;;;;;;11.52;1.50;;;19.40;99.90;;;;;;5021373;28;20087;-59
2021/10/01 11:54:58;;;;;;;6.05;1.50;;;19.60;99.90;;;;;;5027560;28;20055;-60
2021/10/01 11:57:34;;;;;;;4.38;1.20;;;19.70;99.90;;;;;;5026861;28;20056;-58
2021/10/01 12:00:02;;;;;;;8.32;1.30;;;19.60;99.90;;;;;;5022369;28;20509;-60
2021/10/01 12:02:33;;;;;;;7.72;1.00;;;19.50;99.90;;;;;;5003337;28;20038;-58
2021/10/01 12:05:17;;;;;;;7.90;1.13;;;19.60;99.90;;;;;;5019481;28;20041;-61
2021/10/01 12:07:48;;;;;;;4.10;1.52;;;19.60;99.90;;;;;;5023574;28;20091;-57
2021/10/01 12:10:14;;;;;;;5.97;1.70;;;19.50;99.90;;;;;;5022315;28;20030;-60
2021/10/01 12:12:58;;;;;;;4.63;1.23;;;19.30;99.90;;;;;;5019401;28;20042;-62
2021/10/01 12:15:36;;;;;;;8.10;1.23;;;19.20;99.90;;;;;;5030632;28;20037;-58
2021/10/01 12:18:03;;;;;;;4.10;0.98;;;19.20;99.90;;;;;;5026314;28;20046;-59
2021/10/01 12:20:28;;;;;;;6.85;1.20;;;19.40;99.90;;;;;;5026179;28;20017;-59
2021/10/01 12:22:54;;;;;;;3.35;1.02;;;19.50;99.90;;;;;;5022731;28;20065;-59
2021/10/01 12:25:26;;;;;;;2.70;1.02;;;19.70;99.90;;;;;;5030516;28;20203;-59
2021/10/01 12:27:52;;;;;;;5.65;1.10;;;19.80;99.90;;;;;;5025386;28;20036;-58
2021/10/01 12:30:17;;;;;;;5.53;0.93;;;20.00;99.90;;;;;;5026200;28;20039;-60
2021/10/01 12:32:47;;;;;;;4.70;0.93;;;20.20;99.90;;;;;;5026156;28;20033;-55
2021/10/01 12:35:14;;;;;;;3.20;1.00;;;20.50;99.90;;;;;;5027432;28;20438;-58
2021/10/01 12:37:40;;;;;;;4.65;1.00;;;20.70;99.90;;;;;;5028136;28;20038;-58
2021/10/01 12:40:08;;;;;;;5.88;1.33;;;20.80;99.90;;;;;;5015683;28;20022;-59
2021/10/01 12:42:36;;;;;;;3.45;1.48;;;20.60;99.90;;;;;;5025842;28;20084;-59
2021/10/01 12:45:01;;;;;;;9.45;0.98;;;20.40;99.90;;;;;;5011965;28;20037;-58
2021/10/01 12:47:27;;;;;;;3.70;0.88;;;20.30;99.90;;;;;;5015784;28;20386;-63
2021/10/01 12:49:59;;;;;;;7.85;0.98;;;20.20;99.90;;;;;;5023937;28;20100;-58
2021/10/01 12:52:30;;;;;;;6.25;1.00;;;20.40;99.90;;;;;;5020816;28;20489;-60
2021/10/01 12:55:01;;;;;;;2.33;0.85;;;20.40;99.90;;;;;;5020835;28;20175;-60
2021/10/01 12:57:29;;;;;;;4.85;1.08;;;20.40;99.90;;;;;;5023126;28;20115;-57
2021/10/01 13:00:02;;;;;;;2.97;0.90;;;20.50;99.90;;;;;;5021943;28;20120;-59
2021/10/01 13:02:41;;;;;;;2.00;1.05;;;20.50;98.90;;;;;;5027280;28;20033;-58
2021/10/01 13:05:18;;;;;;;10.20;0.85;;;20.70;99.10;;;;;;5017338;28;20405;-59
2021/10/01 13:07:52;;;;;;;6.05;0.93;;;20.70;98.20;;;;;;5019050;28;20112;-60
2021/10/01 13:10:26;;;;;;;7.07;1.08;;;20.70;98.20;;;;;;5024763;28;20021;-60
2021/10/01 13:13:04;;;;;;;5.03;0.95;;;20.80;98.80;;;;;;5021735;28;20034;-61
2021/10/01 13:15:37;;;;;;;112.38;9.38;;;20.80;98.50;;;;;;5028124;28;21988;-60
2021/10/01 13:18:22;;;;;;;1.33;0.65;;;20.80;98.50;;;;;;5030624;28;20030;-59
2021/10/01 13:21:07;;;;;;;4.35;0.73;;;20.70;97.40;;;;;;5026677;28;20463;-59
2021/10/01 13:23:54;;;;;;;1.55;0.63;;;20.80;99.70;;;;;;5013558;28;20057;-57
2021/10/01 13:26:50;;;;;;;2.63;0.70;;;20.80;97.90;;;;;;5021455;28;20105;-59
2021/10/01 13:29:15;;;;;;;4.28;0.88;;;20.70;98.80;;;;;;5014967;28;20045;-55
2021/10/01 13:31:46;;;;;;;2.22;1.05;;;20.70;98.30;;;;;;5016406;28;20394;-58
2021/10/01 13:34:12;;;;;;;1.23;0.70;;;20.80;96.60;;;;;;5020632;28;20129;-57
2021/10/01 13:36:39;;;;;;;3.55;0.82;;;20.90;97.00;;;;;;5021255;28;20021;-59
2021/10/01 13:39:05;;;;;;;5.00;0.90;;;21.00;98.60;;;;;;5022107;28;20029;-58
2021/10/01 13:41:31;;;;;;;5.53;1.15;;;20.90;97.50;;;;;;5011574;28;20045;-59
2021/10/01 13:43:57;;;;;;;2.78;0.90;;;20.80;99.00;;;;;;5013964;28;20018;-57
2021/10/01 13:46:23;;;;;;;3.75;0.77;;;20.60;96.60;;;;;;5025636;28;20028;-59
2021/10/01 13:48:50;;;;;;;3.67;0.95;;;20.40;96.00;;;;;;5013882;28;20026;-57
2021/10/01 13:51:16;;;;;;;2.70;0.70;;;20.40;96.40;;;;;;5018576;28;20099;-57
2021/10/01 13:53:43;;;;;;;6.28;1.65;;;20.30;97.00;;;;;;5024319;28;20355;-58
2021/10/01 13:56:08;;;;;;;11.55;0.90;;;20.20;97.10;;;;;;5025773;28;20087;-58
2021/10/01 13:58:35;;;;;;;3.78;1.00;;;20.10;96.90;;;;;;5020295;28;20030;-58
2021/10/01 14:01:01;;;;;;;4.50;0.90;;;20.00;98.20;;;;;;5019289;28;20104;-59
2021/10/01 14:03:27;;;;;;;5.82;0.98;;;20.00;97.80;;;;;;5026279;28;20096;-59
2021/10/01 14:05:53;;;;;;;5.18;1.02;;;19.80;96.60;;;;;;5021354;28;20113;-58
2021/10/01 14:08:20;;;;;;;6.18;0.90;;;19.80;97.70;;;;;;5023426;28;20096;-59
2021/10/01 14:10:46;;;;;;;1.75;0.88;;;19.70;97.70;;;;;;5011683;28;20027;-61
2021/10/01 14:13:12;;;;;;;2.63;0.90;;;19.50;97.30;;;;;;5020500;28;20040;-60
2021/10/01 14:15:39;;;;;;;3.70;1.05;;;19.50;97.60;;;;;;5027032;28;20022;-60
2021/10/01 14:18:05;;;;;;;4.18;1.20;;;19.30;97.40;;;;;;4999113;28;20037;-59
2021/10/01 14:20:31;;;;;;;5.72;1.10;;;19.30;98.70;;;;;;5024457;28;20049;-61
2021/10/01 14:22:58;;;;;;;8.85;1.30;;;19.20;99.90;;;;;;4995453;28;20034;-58
2021/10/01 14:25:26;;;;;;;5.85;1.20;;;19.20;99.90;;;;;;5019559;28;20080;-60